sensor_id;sensor_type;location;lat;lon;timestamp;P1;durP1;ratioP1;P2;durP2;ratioP2
36321;SDS011;23564;48.290;11.460;2024-03-06T00:01:04;36.78;;;19.48;;
36321;SDS011;23564;48.290;11.460;2024-03-06T00:03:30;35.65;;;19.20;;
36321;SDS011;23564;48.290;11.460;2024-03-06T00:05:56;35.75;;;19.27;;
36321;SDS011;23564;48.290;11.460;2024-03-06T00:08:21;33.83;;;18.90;;
36321;SDS011;23564;48.290;11.460;2024-03-06T00:10:47;35.33;;;18.52;;
36321;SDS011;23564;48.290;11.460;2024-03-06T00:13:12;32.08;;;18.08;;
36321;SDS011;23564;48.290;11.460;2024-03-06T00:15:39;37.30;;;19.83;;
36321;SDS011;23564;48.290;11.460;2024-03-06T00:18:04;32.22;;;18.25;;
36321;SDS011;23564;48.290;11.460;2024-03-06T00:20:30;38.03;;;20.05;;
36321;SDS011;23564;48.290;11.460;2024-03-06T00:22:56;36.97;;;19.30;;
36321;SDS011;23564;48.290;11.460;2024-03-06T00:25:21;39.35;;;20.33;;
36321;SDS011;23564;48.290;11.460;2024-03-06T00:27:47;38.15;;;19.88;;
36321;SDS011;23564;48.290;11.460;2024-03-06T00:30:12;37.55;;;20.38;;
36321;SDS011;23564;48.290;11.460;2024-03-06T00:32:38;37.58;;;19.52;;
36321;SDS011;23564;48.290;11.460;2024-03-06T00:35:04;40.75;;;21.10;;
36321;SDS011;23564;48.290;11.460;2024-03-06T00:37:30;38.35;;;20.45;;
36321;SDS011;23564;48.290;11.460;2024-03-06T00:39:55;36.55;;;21.00;;
36321;SDS011;23564;48.290;11.460;2024-03-06T00:42:21;42.67;;;20.67;;
36321;SDS011;23564;48.290;11.460;2024-03-06T00:44:46;39.83;;;21.55;;
36321;SDS011;23564;48.290;11.460;2024-03-06T00:47:12;36.58;;;20.65;;
36321;SDS011;23564;48.290;11.460;2024-03-06T00:49:38;33.83;;;18.92;;
36321;SDS011;23564;48.290;11.460;2024-03-06T00:52:04;46.33;;;23.30;;
36321;SDS011;23564;48.290;11.460;2024-03-06T00:54:29;39.75;;;22.00;;
36321;SDS011;23564;48.290;11.460;2024-03-06T00:56:55;41.05;;;21.88;;
36321;SDS011;23564;48.290;11.460;2024-03-06T00:59:22;41.58;;;22.70;;
36321;SDS011;23564;48.290;11.460;2024-03-06T01:01:48;43.55;;;22.98;;
36321;SDS011;23564;48.290;11.460;2024-03-06T01:04:13;45.38;;;23.67;;
36321;SDS011;23564;48.290;11.460;2024-03-06T01:06:39;40.78;;;21.75;;
36321;SDS011;23564;48.290;11.460;2024-03-06T01:09:05;47.15;;;23.73;;
36321;SDS011;23564;48.290;11.460;2024-03-06T01:11:30;45.72;;;24.27;;
36321;SDS011;23564;48.290;11.460;2024-03-06T01:13:56;46.97;;;25.23;;
36321;SDS011;23564;48.290;11.460;2024-03-06T01:16:21;44.10;;;23.30;;
36321;SDS011;23564;48.290;11.460;2024-03-06T01:18:47;44.20;;;23.70;;
36321;SDS011;23564;48.290;11.460;2024-03-06T01:21:13;48.20;;;24.50;;
36321;SDS011;23564;48.290;11.460;2024-03-06T01:23:38;47.90;;;24.80;;
36321;SDS011;23564;48.290;11.460;2024-03-06T01:26:04;47.55;;;25.17;;
36321;SDS011;23564;48.290;11.460;2024-03-06T01:28:29;50.22;;;25.30;;
36321;SDS011;23564;48.290;11.460;2024-03-06T01:30:55;49.72;;;23.98;;
36321;SDS011;23564;48.290;11.460;2024-03-06T01:33:20;50.70;;;24.27;;
36321;SDS011;23564;48.290;11.460;2024-03-06T01:35:46;52.03;;;25.45;;
36321;SDS011;23564;48.290;11.460;2024-03-06T01:38:12;47.33;;;25.05;;
36321;SDS011;23564;48.290;11.460;2024-03-06T01:40:42;54.28;;;25.73;;
36321;SDS011;23564;48.290;11.460;2024-03-06T01:43:16;53.28;;;27.42;;
36321;SDS011;23564;48.290;11.460;2024-03-06T01:45:44;49.25;;;23.48;;
36321;SDS011;23564;48.290;11.460;2024-03-06T01:48:10;50.92;;;26.30;;
36321;SDS011;23564;48.290;11.460;2024-03-06T01:50:36;47.88;;;25.20;;
36321;SDS011;23564;48.290;11.460;2024-03-06T01:53:02;51.38;;;25.80;;
36321;SDS011;23564;48.290;11.460;2024-03-06T01:55:27;52.20;;;25.15;;
36321;SDS011;23564;48.290;11.460;2024-03-06T01:57:53;51.28;;;23.45;;
36321;SDS011;23564;48.290;11.460;2024-03-06T02:00:19;52.83;;;24.77;;
36321;SDS011;23564;48.290;11.460;2024-03-06T02:02:46;49.70;;;22.58;;
36321;SDS011;23564;48.290;11.460;2024-03-06T02:05:11;52.55;;;24.85;;
36321;SDS011;23564;48.290;11.460;2024-03-06T02:07:38;51.70;;;25.45;;
36321;SDS011;23564;48.290;11.460;2024-03-06T02:10:07;57.65;;;25.55;;
36321;SDS011;23564;48.290;11.460;2024-03-06T02:12:35;52.45;;;24.35;;
36321;SDS011;23564;48.290;11.460;2024-03-06T02:15:01;50.75;;;24.67;;
36321;SDS011;23564;48.290;11.460;2024-03-06T02:17:28;58.72;;;26.80;;
36321;SDS011;23564;48.290;11.460;2024-03-06T02:19:54;56.42;;;25.40;;
36321;SDS011;23564;48.290;11.460;2024-03-06T02:22:20;56.33;;;25.63;;
36321;SDS011;23564;48.290;11.460;2024-03-06T02:24:47;54.75;;;24.73;;
36321;SDS011;23564;48.290;11.460;2024-03-06T02:27:14;55.63;;;26.65;;
36321;SDS011;23564;48.290;11.460;2024-03-06T02:29:41;58.40;;;27.23;;
36321;SDS011;23564;48.290;11.460;2024-03-06T02:32:07;58.70;;;26.38;;
36321;SDS011;23564;48.290;11.460;2024-03-06T02:34:33;62.75;;;27.10;;
36321;SDS011;23564;48.290;11.460;2024-03-06T02:36:59;53.80;;;25.27;;
36321;SDS011;23564;48.290;11.460;2024-03-06T02:39:25;61.47;;;25.95;;
36321;SDS011;23564;48.290;11.460;2024-03-06T02:41:50;69.47;;;28.45;;
36321;SDS011;23564;48.290;11.460;2024-03-06T02:44:16;63.30;;;27.00;;
36321;SDS011;23564;48.290;11.460;2024-03-06T02:46:42;66.30;;;27.60;;
36321;SDS011;23564;48.290;11.460;2024-03-06T02:51:40;60.65;;;26.08;;
36321;SDS011;23564;48.290;11.460;2024-03-06T02:54:06;58.97;;;25.42;;
36321;SDS011;23564;48.290;11.460;2024-03-06T02:56:31;66.20;;;27.55;;
36321;SDS011;23564;48.290;11.460;2024-03-06T02:58:57;66.15;;;26.77;;
36321;SDS011;23564;48.290;11.460;2024-03-06T03:01:22;56.65;;;25.92;;
36321;SDS011;23564;48.290;11.460;2024-03-06T03:03:48;66.57;;;26.48;;
36321;SDS011;23564;48.290;11.460;2024-03-06T03:06:16;59.80;;;25.73;;
36321;SDS011;23564;48.290;11.460;2024-03-06T03:08:41;61.22;;;26.75;;
36321;SDS011;23564;48.290;11.460;2024-03-06T03:11:07;59.33;;;26.33;;
36321;SDS011;23564;48.290;11.460;2024-03-06T03:13:33;56.88;;;25.15;;
36321;SDS011;23564;48.290;11.460;2024-03-06T03:15:58;58.63;;;25.80;;
36321;SDS011;23564;48.290;11.460;2024-03-06T03:18:24;60.28;;;26.70;;
36321;SDS011;23564;48.290;11.460;2024-03-06T03:20:50;60.33;;;25.42;;
36321;SDS011;23564;48.290;11.460;2024-03-06T03:23:15;62.05;;;25.13;;
36321;SDS011;23564;48.290;11.460;2024-03-06T03:25:46;64.63;;;26.67;;
36321;SDS011;23564;48.290;11.460;2024-03-06T03:28:15;58.00;;;25.77;;
36321;SDS011;23564;48.290;11.460;2024-03-06T03:30:43;60.95;;;26.50;;
36321;SDS011;23564;48.290;11.460;2024-03-06T03:33:09;65.90;;;27.55;;
36321;SDS011;23564;48.290;11.460;2024-03-06T03:35:35;62.45;;;27.25;;
36321;SDS011;23564;48.290;11.460;2024-03-06T03:38:00;63.25;;;26.60;;
36321;SDS011;23564;48.290;11.460;2024-03-06T03:40:26;63.88;;;28.02;;
36321;SDS011;23564;48.290;11.460;2024-03-06T03:42:51;58.75;;;25.55;;
36321;SDS011;23564;48.290;11.460;2024-03-06T03:45:17;61.15;;;26.75;;
36321;SDS011;23564;48.290;11.460;2024-03-06T03:47:43;57.97;;;24.63;;
36321;SDS011;23564;48.290;11.460;2024-03-06T03:50:09;67.47;;;28.52;;
36321;SDS011;23564;48.290;11.460;2024-03-06T03:52:34;65.78;;;27.88;;
36321;SDS011;23564;48.290;11.460;2024-03-06T03:55:00;55.10;;;25.48;;
36321;SDS011;23564;48.290;11.460;2024-03-06T03:57:25;57.35;;;26.55;;
36321;SDS011;23564;48.290;11.460;2024-03-06T03:59:51;60.15;;;25.05;;
36321;SDS011;23564;48.290;11.460;2024-03-06T04:02:17;64.82;;;26.25;;
36321;SDS011;23564;48.290;11.460;2024-03-06T04:04:42;59.55;;;26.52;;
36321;SDS011;23564;48.290;11.460;2024-03-06T04:07:08;65.35;;;27.23;;
36321;SDS011;23564;48.290;11.460;2024-03-06T04:09:33;59.67;;;25.02;;
36321;SDS011;23564;48.290;11.460;2024-03-06T04:12:02;54.95;;;24.05;;
36321;SDS011;23564;48.290;11.460;2024-03-06T04:14:28;61.97;;;27.25;;
36321;SDS011;23564;48.290;11.460;2024-03-06T04:16:55;61.97;;;25.70;;
36321;SDS011;23564;48.290;11.460;2024-03-06T04:19:21;58.22;;;25.17;;
36321;SDS011;23564;48.290;11.460;2024-03-06T04:21:46;63.58;;;25.17;;
36321;SDS011;23564;48.290;11.460;2024-03-06T04:24:12;53.83;;;23.52;;
36321;SDS011;23564;48.290;11.460;2024-03-06T04:26:37;57.20;;;24.25;;
36321;SDS011;23564;48.290;11.460;2024-03-06T04:29:03;55.08;;;23.45;;
36321;SDS011;23564;48.290;11.460;2024-03-06T04:31:28;53.85;;;23.50;;
36321;SDS011;23564;48.290;11.460;2024-03-06T04:33:54;56.30;;;25.30;;
36321;SDS011;23564;48.290;11.460;2024-03-06T04:36:20;61.42;;;25.23;;
36321;SDS011;23564;48.290;11.460;2024-03-06T04:38:45;56.25;;;23.92;;
36321;SDS011;23564;48.290;11.460;2024-03-06T04:41:11;59.63;;;23.85;;
36321;SDS011;23564;48.290;11.460;2024-03-06T04:43:36;62.13;;;25.38;;
36321;SDS011;23564;48.290;11.460;2024-03-06T04:46:02;55.03;;;24.50;;
36321;SDS011;23564;48.290;11.460;2024-03-06T04:48:29;57.17;;;24.67;;
36321;SDS011;23564;48.290;11.460;2024-03-06T04:50:54;52.30;;;23.52;;
36321;SDS011;23564;48.290;11.460;2024-03-06T04:53:20;57.83;;;26.13;;
36321;SDS011;23564;48.290;11.460;2024-03-06T04:55:46;61.00;;;25.52;;
36321;SDS011;23564;48.290;11.460;2024-03-06T04:58:11;51.85;;;23.35;;
36321;SDS011;23564;48.290;11.460;2024-03-06T05:00:37;60.35;;;25.40;;
36321;SDS011;23564;48.290;11.460;2024-03-06T05:03:03;54.83;;;23.73;;
36321;SDS011;23564;48.290;11.460;2024-03-06T05:05:29;53.45;;;24.45;;
36321;SDS011;23564;48.290;11.460;2024-03-06T05:07:54;60.80;;;25.05;;
36321;SDS011;23564;48.290;11.460;2024-03-06T05:10:20;55.03;;;24.33;;
36321;SDS011;23564;48.290;11.460;2024-03-06T05:12:46;55.35;;;24.00;;
36321;SDS011;23564;48.290;11.460;2024-03-06T05:15:12;58.40;;;24.75;;
36321;SDS011;23564;48.290;11.460;2024-03-06T05:17:37;58.65;;;25.33;;
36321;SDS011;23564;48.290;11.460;2024-03-06T05:20:03;60.90;;;24.17;;
36321;SDS011;23564;48.290;11.460;2024-03-06T05:22:30;59.22;;;24.25;;
36321;SDS011;23564;48.290;11.460;2024-03-06T05:24:55;65.43;;;24.98;;
36321;SDS011;23564;48.290;11.460;2024-03-06T05:27:21;53.92;;;22.77;;
36321;SDS011;23564;48.290;11.460;2024-03-06T05:29:47;60.75;;;24.20;;
36321;SDS011;23564;48.290;11.460;2024-03-06T05:32:12;50.50;;;22.88;;
36321;SDS011;23564;48.290;11.460;2024-03-06T05:34:38;67.72;;;26.55;;
36321;SDS011;23564;48.290;11.460;2024-03-06T05:37:04;56.92;;;23.63;;
36321;SDS011;23564;48.290;11.460;2024-03-06T05:39:30;58.80;;;24.15;;
36321;SDS011;23564;48.290;11.460;2024-03-06T05:42:03;58.42;;;23.38;;
36321;SDS011;23564;48.290;11.460;2024-03-06T05:44:32;57.13;;;23.25;;
36321;SDS011;23564;48.290;11.460;2024-03-06T05:46:58;56.00;;;23.33;;
36321;SDS011;23564;48.290;11.460;2024-03-06T05:49:26;56.55;;;24.15;;
36321;SDS011;23564;48.290;11.460;2024-03-06T05:51:52;57.80;;;22.90;;
36321;SDS011;23564;48.290;11.460;2024-03-06T05:54:18;58.95;;;24.52;;
36321;SDS011;23564;48.290;11.460;2024-03-06T05:56:44;54.33;;;23.52;;
36321;SDS011;23564;48.290;11.460;2024-03-06T05:59:10;51.80;;;23.02;;
36321;SDS011;23564;48.290;11.460;2024-03-06T06:01:35;53.97;;;23.63;;
36321;SDS011;23564;48.290;11.460;2024-03-06T06:04:01;52.72;;;22.35;;
36321;SDS011;23564;48.290;11.460;2024-03-06T06:06:27;54.97;;;22.77;;
36321;SDS011;23564;48.290;11.460;2024-03-06T06:08:53;52.35;;;22.45;;
36321;SDS011;23564;48.290;11.460;2024-03-06T06:11:19;55.38;;;22.92;;
36321;SDS011;23564;48.290;11.460;2024-03-06T06:13:44;49.85;;;22.00;;
36321;SDS011;23564;48.290;11.460;2024-03-06T06:16:10;54.58;;;22.38;;
36321;SDS011;23564;48.290;11.460;2024-03-06T06:18:36;55.85;;;23.13;;
36321;SDS011;23564;48.290;11.460;2024-03-06T06:21:01;50.63;;;22.63;;
36321;SDS011;23564;48.290;11.460;2024-03-06T06:23:29;50.90;;;21.42;;
36321;SDS011;23564;48.290;11.460;2024-03-06T06:25:55;53.15;;;22.90;;
36321;SDS011;23564;48.290;11.460;2024-03-06T06:28:21;51.00;;;22.23;;
36321;SDS011;23564;48.290;11.460;2024-03-06T06:30:48;50.83;;;22.73;;
36321;SDS011;23564;48.290;11.460;2024-03-06T06:33:13;49.05;;;21.48;;
36321;SDS011;23564;48.290;11.460;2024-03-06T06:35:39;48.40;;;21.40;;
36321;SDS011;23564;48.290;11.460;2024-03-06T06:38:04;50.25;;;21.33;;
36321;SDS011;23564;48.290;11.460;2024-03-06T06:40:30;45.30;;;19.42;;
36321;SDS011;23564;48.290;11.460;2024-03-06T06:42:55;46.53;;;20.73;;
36321;SDS011;23564;48.290;11.460;2024-03-06T06:45:21;46.90;;;21.88;;
36321;SDS011;23564;48.290;11.460;2024-03-06T06:47:47;48.47;;;20.83;;
36321;SDS011;23564;48.290;11.460;2024-03-06T06:50:13;46.22;;;18.88;;
36321;SDS011;23564;48.290;11.460;2024-03-06T06:52:39;45.25;;;19.60;;
36321;SDS011;23564;48.290;11.460;2024-03-06T06:55:06;45.13;;;20.00;;
36321;SDS011;23564;48.290;11.460;2024-03-06T06:57:33;45.38;;;19.80;;
36321;SDS011;23564;48.290;11.460;2024-03-06T07:00:01;49.28;;;20.95;;
36321;SDS011;23564;48.290;11.460;2024-03-06T07:02:35;46.92;;;19.50;;
36321;SDS011;23564;48.290;11.460;2024-03-06T07:05:05;46.42;;;20.17;;
36321;SDS011;23564;48.290;11.460;2024-03-06T07:07:30;45.35;;;19.88;;
36321;SDS011;23564;48.290;11.460;2024-03-06T07:09:56;41.50;;;20.13;;
36321;SDS011;23564;48.290;11.460;2024-03-06T07:12:22;42.92;;;20.17;;
36321;SDS011;23564;48.290;11.460;2024-03-06T07:14:47;41.22;;;19.80;;
36321;SDS011;23564;48.290;11.460;2024-03-06T07:17:13;43.35;;;18.65;;
36321;SDS011;23564;48.290;11.460;2024-03-06T07:19:38;43.28;;;18.77;;
36321;SDS011;23564;48.290;11.460;2024-03-06T07:22:04;40.80;;;19.27;;
36321;SDS011;23564;48.290;11.460;2024-03-06T07:24:30;49.10;;;19.25;;
36321;SDS011;23564;48.290;11.460;2024-03-06T07:26:56;42.88;;;19.10;;
36321;SDS011;23564;48.290;11.460;2024-03-06T07:29:21;45.83;;;21.45;;
36321;SDS011;23564;48.290;11.460;2024-03-06T07:31:47;46.67;;;21.52;;
36321;SDS011;23564;48.290;11.460;2024-03-06T07:34:13;42.60;;;18.58;;
36321;SDS011;23564;48.290;11.460;2024-03-06T07:36:39;39.92;;;18.65;;
36321;SDS011;23564;48.290;11.460;2024-03-06T07:39:05;41.35;;;17.90;;
36321;SDS011;23564;48.290;11.460;2024-03-06T07:41:32;40.65;;;18.60;;
36321;SDS011;23564;48.290;11.460;2024-03-06T07:43:58;39.80;;;18.90;;
36321;SDS011;23564;48.290;11.460;2024-03-06T07:46:24;41.67;;;18.30;;
36321;SDS011;23564;48.290;11.460;2024-03-06T07:48:50;43.05;;;18.70;;
36321;SDS011;23564;48.290;11.460;2024-03-06T07:51:16;40.50;;;17.92;;
36321;SDS011;23564;48.290;11.460;2024-03-06T07:53:42;39.35;;;18.20;;
36321;SDS011;23564;48.290;11.460;2024-03-06T07:56:10;40.78;;;19.58;;
36321;SDS011;23564;48.290;11.460;2024-03-06T07:58:38;52.03;;;19.55;;
36321;SDS011;23564;48.290;11.460;2024-03-06T08:01:04;42.63;;;19.17;;
36321;SDS011;23564;48.290;11.460;2024-03-06T08:03:32;43.05;;;20.48;;
36321;SDS011;23564;48.290;11.460;2024-03-06T08:05:58;46.60;;;20.13;;
36321;SDS011;23564;48.290;11.460;2024-03-06T08:08:24;52.28;;;21.25;;
36321;SDS011;23564;48.290;11.460;2024-03-06T08:10:50;48.65;;;20.33;;
36321;SDS011;23564;48.290;11.460;2024-03-06T08:13:16;41.22;;;20.40;;
36321;SDS011;23564;48.290;11.460;2024-03-06T08:15:43;52.70;;;21.58;;
36321;SDS011;23564;48.290;11.460;2024-03-06T08:18:09;44.60;;;19.10;;
36321;SDS011;23564;48.290;11.460;2024-03-06T08:20:34;48.95;;;21.30;;
36321;SDS011;23564;48.290;11.460;2024-03-06T08:23:00;48.35;;;21.95;;
36321;SDS011;23564;48.290;11.460;2024-03-06T08:25:26;51.03;;;22.17;;
36321;SDS011;23564;48.290;11.460;2024-03-06T08:27:52;53.88;;;22.85;;
36321;SDS011;23564;48.290;11.460;2024-03-06T08:30:17;45.80;;;20.98;;
36321;SDS011;23564;48.290;11.460;2024-03-06T08:32:43;53.42;;;22.63;;
36321;SDS011;23564;48.290;11.460;2024-03-06T08:35:09;55.08;;;22.38;;
36321;SDS011;23564;48.290;11.460;2024-03-06T08:37:39;50.15;;;21.58;;
36321;SDS011;23564;48.290;11.460;2024-03-06T08:40:08;49.03;;;21.83;;
36321;SDS011;23564;48.290;11.460;2024-03-06T08:42:39;56.63;;;24.05;;
36321;SDS011;23564;48.290;11.460;2024-03-06T08:45:06;49.60;;;22.25;;
36321;SDS011;23564;48.290;11.460;2024-03-06T08:47:33;56.55;;;22.80;;
36321;SDS011;23564;48.290;11.460;2024-03-06T08:49:58;48.13;;;22.10;;
36321;SDS011;23564;48.290;11.460;2024-03-06T08:52:24;49.33;;;22.33;;
36321;SDS011;23564;48.290;11.460;2024-03-06T08:54:49;55.15;;;23.33;;
36321;SDS011;23564;48.290;11.460;2024-03-06T08:57:15;50.53;;;22.90;;
36321;SDS011;23564;48.290;11.460;2024-03-06T08:59:41;56.47;;;22.23;;
36321;SDS011;23564;48.290;11.460;2024-03-06T09:02:15;47.75;;;22.25;;
36321;SDS011;23564;48.290;11.460;2024-03-06T09:04:42;53.05;;;23.70;;
36321;SDS011;23564;48.290;11.460;2024-03-06T09:07:07;49.08;;;24.48;;
36321;SDS011;23564;48.290;11.460;2024-03-06T09:09:33;54.78;;;23.73;;
36321;SDS011;23564;48.290;11.460;2024-03-06T09:12:00;54.65;;;24.35;;
36321;SDS011;23564;48.290;11.460;2024-03-06T09:14:26;51.80;;;24.63;;
36321;SDS011;23564;48.290;11.460;2024-03-06T09:16:51;51.55;;;25.33;;
36321;SDS011;23564;48.290;11.460;2024-03-06T09:19:17;54.28;;;25.40;;
36321;SDS011;23564;48.290;11.460;2024-03-06T09:21:42;55.10;;;25.15;;
36321;SDS011;23564;48.290;11.460;2024-03-06T09:24:08;55.28;;;24.80;;
36321;SDS011;23564;48.290;11.460;2024-03-06T09:26:33;51.25;;;24.27;;
36321;SDS011;23564;48.290;11.460;2024-03-06T09:28:59;55.00;;;24.83;;
36321;SDS011;23564;48.290;11.460;2024-03-06T09:31:26;62.90;;;25.23;;
36321;SDS011;23564;48.290;11.460;2024-03-06T09:33:52;56.42;;;25.08;;
36321;SDS011;23564;48.290;11.460;2024-03-06T09:36:18;53.80;;;24.88;;
36321;SDS011;23564;48.290;11.460;2024-03-06T09:38:44;49.88;;;24.52;;
36321;SDS011;23564;48.290;11.460;2024-03-06T09:41:09;60.65;;;24.92;;
36321;SDS011;23564;48.290;11.460;2024-03-06T09:43:35;47.95;;;23.08;;
36321;SDS011;23564;48.290;11.460;2024-03-06T09:46:01;52.50;;;23.77;;
36321;SDS011;23564;48.290;11.460;2024-03-06T09:48:29;57.15;;;24.83;;
36321;SDS011;23564;48.290;11.460;2024-03-06T09:50:57;48.35;;;23.13;;
36321;SDS011;23564;48.290;11.460;2024-03-06T09:53:27;51.05;;;25.25;;
36321;SDS011;23564;48.290;11.460;2024-03-06T09:55:52;53.95;;;24.23;;
36321;SDS011;23564;48.290;11.460;2024-03-06T09:58:19;52.63;;;24.55;;
36321;SDS011;23564;48.290;11.460;2024-03-06T10:00:45;52.33;;;23.65;;
36321;SDS011;23564;48.290;11.460;2024-03-06T10:03:12;49.00;;;23.70;;
36321;SDS011;23564;48.290;11.460;2024-03-06T10:05:38;51.72;;;22.98;;
36321;SDS011;23564;48.290;11.460;2024-03-06T10:08:04;47.38;;;22.92;;
36321;SDS011;23564;48.290;11.460;2024-03-06T10:10:30;52.90;;;23.15;;
36321;SDS011;23564;48.290;11.460;2024-03-06T10:12:56;51.03;;;22.70;;
36321;SDS011;23564;48.290;11.460;2024-03-06T10:15:22;50.53;;;23.15;;
36321;SDS011;23564;48.290;11.460;2024-03-06T10:17:50;46.13;;;21.98;;
36321;SDS011;23564;48.290;11.460;2024-03-06T10:20:20;45.45;;;21.75;;
36321;SDS011;23564;48.290;11.460;2024-03-06T10:22:47;45.90;;;21.08;;
36321;SDS011;23564;48.290;11.460;2024-03-06T10:25:22;42.88;;;20.63;;
36321;SDS011;23564;48.290;11.460;2024-03-06T10:28:06;49.20;;;20.80;;
36321;SDS011;23564;48.290;11.460;2024-03-06T10:30:34;44.55;;;21.30;;
36321;SDS011;23564;48.290;11.460;2024-03-06T10:33:07;46.13;;;21.00;;
36321;SDS011;23564;48.290;11.460;2024-03-06T10:35:33;48.55;;;21.52;;
36321;SDS011;23564;48.290;11.460;2024-03-06T10:38:01;43.88;;;21.15;;
36321;SDS011;23564;48.290;11.460;2024-03-06T10:40:34;46.20;;;22.27;;
36321;SDS011;23564;48.290;11.460;2024-03-06T10:43:01;43.13;;;21.40;;
36321;SDS011;23564;48.290;11.460;2024-03-06T10:48:14;47.22;;;20.23;;
36321;SDS011;23564;48.290;11.460;2024-03-06T10:50:41;47.42;;;21.75;;
36321;SDS011;23564;48.290;11.460;2024-03-06T10:53:11;41.28;;;20.55;;
36321;SDS011;23564;48.290;11.460;2024-03-06T10:55:38;43.88;;;21.88;;
36321;SDS011;23564;48.290;11.460;2024-03-06T10:58:07;43.80;;;20.25;;
36321;SDS011;23564;48.290;11.460;2024-03-06T11:00:34;42.10;;;20.75;;
36321;SDS011;23564;48.290;11.460;2024-03-06T11:03:05;46.42;;;21.73;;
36321;SDS011;23564;48.290;11.460;2024-03-06T11:05:36;44.72;;;21.80;;
36321;SDS011;23564;48.290;11.460;2024-03-06T11:08:04;46.05;;;22.13;;
36321;SDS011;23564;48.290;11.460;2024-03-06T11:10:34;42.33;;;21.27;;
36321;SDS011;23564;48.290;11.460;2024-03-06T11:13:02;46.38;;;22.20;;
36321;SDS011;23564;48.290;11.460;2024-03-06T11:15:29;46.97;;;21.67;;
36321;SDS011;23564;48.290;11.460;2024-03-06T11:17:55;44.88;;;22.17;;
36321;SDS011;23564;48.290;11.460;2024-03-06T11:20:21;42.53;;;21.30;;
36321;SDS011;23564;48.290;11.460;2024-03-06T11:28:18;41.40;;;20.97;;
36321;SDS011;23564;48.290;11.460;2024-03-06T11:30:54;44.42;;;20.88;;
36321;SDS011;23564;48.290;11.460;2024-03-06T11:33:28;45.20;;;20.98;;
36321;SDS011;23564;48.290;11.460;2024-03-06T11:36:24;42.47;;;21.10;;
36321;SDS011;23564;48.290;11.460;2024-03-06T11:39:04;46.05;;;22.45;;
36321;SDS011;23564;48.290;11.460;2024-03-06T11:44:12;38.42;;;19.33;;
36321;SDS011;23564;48.290;11.460;2024-03-06T11:46:59;40.40;;;20.10;;
36321;SDS011;23564;48.290;11.460;2024-03-06T11:49:32;33.70;;;17.98;;
36321;SDS011;23564;48.290;11.460;2024-03-06T11:52:02;38.58;;;19.70;;
36321;SDS011;23564;48.290;11.460;2024-03-06T11:54:30;36.83;;;19.48;;
36321;SDS011;23564;48.290;11.460;2024-03-06T11:56:58;37.97;;;18.00;;
36321;SDS011;23564;48.290;11.460;2024-03-06T11:59:26;41.22;;;20.33;;
36321;SDS011;23564;48.290;11.460;2024-03-06T12:01:57;40.13;;;20.15;;
36321;SDS011;23564;48.290;11.460;2024-03-06T12:04:26;38.50;;;17.73;;
36321;SDS011;23564;48.290;11.460;2024-03-06T12:06:52;35.10;;;18.98;;
36321;SDS011;23564;48.290;11.460;2024-03-06T12:09:21;35.67;;;17.75;;
36321;SDS011;23564;48.290;11.460;2024-03-06T12:11:47;38.03;;;18.60;;
36321;SDS011;23564;48.290;11.460;2024-03-06T12:14:17;38.30;;;17.67;;
36321;SDS011;23564;48.290;11.460;2024-03-06T12:16:43;35.08;;;18.63;;
36321;SDS011;23564;48.290;11.460;2024-03-06T12:19:19;38.65;;;17.63;;
36321;SDS011;23564;48.290;11.460;2024-03-06T12:21:46;31.40;;;16.75;;
36321;SDS011;23564;48.290;11.460;2024-03-06T12:24:12;41.70;;;19.67;;
36321;SDS011;23564;48.290;11.460;2024-03-06T12:26:41;38.95;;;19.10;;
36321;SDS011;23564;48.290;11.460;2024-03-06T12:29:07;34.75;;;17.40;;
36321;SDS011;23564;48.290;11.460;2024-03-06T12:31:35;36.80;;;19.58;;
36321;SDS011;23564;48.290;11.460;2024-03-06T12:34:03;33.08;;;16.88;;
36321;SDS011;23564;48.290;11.460;2024-03-06T12:36:29;39.03;;;17.17;;
36321;SDS011;23564;48.290;11.460;2024-03-06T12:38:56;33.42;;;16.67;;
36321;SDS011;23564;48.290;11.460;2024-03-06T12:41:25;35.08;;;18.02;;
36321;SDS011;23564;48.290;11.460;2024-03-06T12:43:52;35.88;;;17.23;;
36321;SDS011;23564;48.290;11.460;2024-03-06T12:46:18;34.10;;;16.38;;
36321;SDS011;23564;48.290;11.460;2024-03-06T12:48:44;36.28;;;16.30;;
36321;SDS011;23564;48.290;11.460;2024-03-06T12:51:10;35.33;;;15.45;;
36321;SDS011;23564;48.290;11.460;2024-03-06T12:53:36;32.25;;;16.38;;
36321;SDS011;23564;48.290;11.460;2024-03-06T12:56:02;32.22;;;15.45;;
36321;SDS011;23564;48.290;11.460;2024-03-06T12:58:28;27.85;;;14.18;;
36321;SDS011;23564;48.290;11.460;2024-03-06T13:00:56;32.78;;;15.57;;
36321;SDS011;23564;48.290;11.460;2024-03-06T13:03:22;34.00;;;16.00;;
36321;SDS011;23564;48.290;11.460;2024-03-06T13:05:48;28.90;;;14.93;;
36321;SDS011;23564;48.290;11.460;2024-03-06T13:08:14;29.67;;;14.70;;
36321;SDS011;23564;48.290;11.460;2024-03-06T13:10:40;26.85;;;14.13;;
36321;SDS011;23564;48.290;11.460;2024-03-06T13:13:06;30.00;;;14.45;;
36321;SDS011;23564;48.290;11.460;2024-03-06T13:15:32;32.55;;;15.10;;
36321;SDS011;23564;48.290;11.460;2024-03-06T13:17:59;33.45;;;15.02;;
36321;SDS011;23564;48.290;11.460;2024-03-06T13:20:28;36.63;;;16.13;;
36321;SDS011;23564;48.290;11.460;2024-03-06T13:22:54;28.90;;;15.82;;
36321;SDS011;23564;48.290;11.460;2024-03-06T13:25:19;34.15;;;15.82;;
36321;SDS011;23564;48.290;11.460;2024-03-06T13:27:45;31.60;;;15.70;;
36321;SDS011;23564;48.290;11.460;2024-03-06T13:30:11;32.40;;;15.93;;
36321;SDS011;23564;48.290;11.460;2024-03-06T13:32:37;34.45;;;15.75;;
36321;SDS011;23564;48.290;11.460;2024-03-06T13:35:03;32.55;;;16.67;;
36321;SDS011;23564;48.290;11.460;2024-03-06T13:37:31;33.33;;;15.52;;
36321;SDS011;23564;48.290;11.460;2024-03-06T13:39:57;37.17;;;16.30;;
36321;SDS011;23564;48.290;11.460;2024-03-06T13:42:25;36.80;;;16.90;;
36321;SDS011;23564;48.290;11.460;2024-03-06T13:44:52;35.83;;;16.67;;
36321;SDS011;23564;48.290;11.460;2024-03-06T13:47:17;36.85;;;17.42;;
36321;SDS011;23564;48.290;11.460;2024-03-06T13:49:43;36.25;;;18.08;;
36321;SDS011;23564;48.290;11.460;2024-03-06T13:52:09;37.33;;;18.23;;
36321;SDS011;23564;48.290;11.460;2024-03-06T13:54:37;40.15;;;18.20;;
36321;SDS011;23564;48.290;11.460;2024-03-06T13:57:03;41.28;;;19.23;;
36321;SDS011;23564;48.290;11.460;2024-03-06T13:59:32;40.28;;;18.25;;
36321;SDS011;23564;48.290;11.460;2024-03-06T14:01:59;47.83;;;19.95;;
36321;SDS011;23564;48.290;11.460;2024-03-06T14:04:25;44.65;;;20.80;;
36321;SDS011;23564;48.290;11.460;2024-03-06T14:06:51;44.65;;;20.15;;
36321;SDS011;23564;48.290;11.460;2024-03-06T14:09:17;38.30;;;19.80;;
36321;SDS011;23564;48.290;11.460;2024-03-06T14:11:42;42.58;;;19.65;;
36321;SDS011;23564;48.290;11.460;2024-03-06T14:14:08;37.85;;;17.38;;
36321;SDS011;23564;48.290;11.460;2024-03-06T14:16:34;38.33;;;18.42;;
36321;SDS011;23564;48.290;11.460;2024-03-06T14:19:00;40.72;;;18.63;;